Aérodrome :







RETROUVEZ-NOUS SUR...

 
LOGIN :

S'inscrire | Disclaimer

   EN    FR    IT 

 









Légende :    VFR   VFR Marginal   IFR   IFR Intensif   IFR Très Intensif
Visi : 
Plafond : 
>= 8 km
>= 3000ft
5 à 8 km
1000 à 3000 ft
1500m à 5 km
500 à 1000 ft
800 à 1500m
200 à 500 ft
< 800m
< 200 ft
Symboles :   Orages  Brouillard  Fortes neiges  Fortes précipitations  Vent > 20 kt






- Altitude de l'aérodrome : 90 ft
- Code IATA : YHU


CYHU - Montréal Saint-Hubert

DERNIER METAR :
  • 232000Z AUTO 18007KT 9SM CLR 05/M03 A2997 RMK SLP152

METARs EXPIRÉS :
  • 231900Z AUTO 17010KT 9SM CLR 05/M03 A2998 RMK SLP154
  • 231800Z AUTO 18012KT 9SM CLR 04/M03 A2999 RMK SLP158

TAF TAF CYHU
Valide du 23 à 18h jusqu'au 24 à 18h UTC


231742Z 2318/2418 20012KT P6SM SCT240
BECMG 2323/2401 22006KT BKN160
FM240600 VRB03KT P6SM SCT050
FM241500 26010G20KT P6SM BKN030 RMK FCST BASED ON AUTO OBS. NXT FCST BY 240000Z



MET'MAP, la Météo Aéronautique d'un coup d'oeil ! - Copyright ORBIFLY Décembre 2007 - Disclaimer

ORBIFLY MET'MAP TEAM :

Programmation & Développement : Alexandra Zaïnal
Sur une idée originale de : Baudouin d'Aumeries
Assistance à la programmation : Marc-Olivier Méhu
Soutien technique & logistique : Manuel Goepfert

Contact : metmap@orbifly.com




SOURCES & CREDITS :

   NOAA